Time;durP1;ratioP1;P1;durP2;ratioP2;P2;SDS_P1;SDS_P2;PMS_P1;PMS_P2;Temp;Humidity;BMP_temperature;BMP_pressure;BME280_temperature;BME280_humidity;BME280_pressure;Samples;Min_cycle;Max_cycle;Signal;HPM_P1;HPM_P2
2022/01/01 00:01:31;;;;;;;3.70;2.40;;;;;;;3.65;100.00;98517.09;1733897;82;21047;-68
2022/01/01 00:03:57;;;;;;;4.35;2.37;;;;;;;3.70;100.00;98511.73;1734024;82;21068;-68
2022/01/01 00:06:24;;;;;;;4.10;2.45;;;;;;;3.74;100.00;98505.59;1709620;83;21051;-68
2022/01/01 00:08:50;;;;;;;;;;;;;;;3.78;100.00;98511.27;1718152;82;21070;-68
2022/01/01 00:11:17;;;;;;;3.02;1.95;;;;;;;3.79;100.00;98511.56;1733088;82;20111;-68
2022/01/01 00:13:43;;;;;;;3.33;2.33;;;;;;;3.77;100.00;98506.95;1711560;82;21023;-68
2022/01/01 00:16:09;;;;;;;3.42;2.22;;;;;;;3.76;100.00;98503.97;1710440;82;21051;-68
2022/01/01 00:18:36;;;;;;;3.95;2.22;;;;;;;3.76;100.00;98505.32;1710006;84;21019;-68
2022/01/01 00:21:04;;;;;;;3.62;2.30;;;;;;;3.78;100.00;98507.23;1710847;82;21035;-68
2022/01/01 00:23:31;;;;;;;3.75;2.40;;;;;;;3.79;100.00;98508.31;1710115;82;21012;-68
2022/01/01 00:25:57;;;;;;;3.52;2.27;;;;;;;3.82;100.00;98503.78;1714170;82;21000;-68
2022/01/01 00:28:25;;;;;;;3.72;2.05;;;;;;;3.83;100.00;98497.84;1738772;82;20941;-68
2022/01/01 00:30:52;;;;;;;3.50;2.20;;;;;;;3.84;100.00;98492.73;1731477;82;21625;-67
2022/01/01 00:33:18;;;;;;;3.37;2.47;;;;;;;3.85;100.00;98497.06;1732921;82;20964;-67
2022/01/01 00:35:44;;;;;;;3.27;2.20;;;;;;;3.84;100.00;98498.94;1738568;82;21072;-68
2022/01/01 00:38:11;;;;;;;3.67;2.58;;;;;;;3.85;100.00;98487.64;1738612;82;20988;-68
2022/01/01 00:40:37;;;;;;;3.35;2.50;;;;;;;3.82;100.00;98488.98;1731024;82;21043;-68
2022/01/01 00:43:04;;;;;;;4.22;2.85;;;;;;;3.78;100.00;98488.39;1733865;82;21509;-68
2022/01/01 00:45:32;;;;;;;3.98;2.70;;;;;;;3.77;100.00;98486.77;1734260;82;21043;-68
2022/01/01 00:47:58;;;;;;;4.05;2.62;;;;;;;3.77;100.00;98480.03;1722063;82;21028;-69
2022/01/01 00:50:25;;;;;;;3.83;2.72;;;;;;;3.78;100.00;98477.09;1710546;82;21542;-67
2022/01/01 00:52:52;;;;;;;3.87;2.92;;;;;;;3.79;100.00;98483.30;1716116;82;21010;-68
2022/01/01 00:55:19;;;;;;;3.65;2.62;;;;;;;3.81;100.00;98475.77;1710039;82;21015;-69
2022/01/01 00:57:47;;;;;;;4.45;3.08;;;;;;;3.80;100.00;98480.33;1710311;82;21478;-68
2022/01/01 01:00:14;;;;;;;3.70;2.67;;;;;;;3.82;100.00;98481.43;1730754;82;21047;-68
2022/01/01 01:02:41;;;;;;;3.85;2.42;;;;;;;3.82;100.00;98478.73;1715712;82;20996;-68
2022/01/01 01:05:08;;;;;;;4.90;3.05;;;;;;;3.85;100.00;98480.38;1718473;82;21509;-68
2022/01/01 01:07:34;;;;;;;3.92;2.70;;;;;;;3.84;100.00;98466.63;1723133;83;21051;-68
2022/01/01 01:10:02;;;;;;;3.58;2.47;;;;;;;3.85;100.00;98468.27;1723436;82;21030;-68
2022/01/01 01:12:39;;;;;;;3.83;2.40;;;;;;;3.90;100.00;98472.85;1739818;82;21030;-68
2022/01/01 01:14:58;;;;;;;3.05;2.37;;;;;;;3.94;100.00;98457.80;1745382;82;21596;-68
2022/01/01 01:17:24;;;;;;;3.90;2.87;;;;;;;3.99;100.00;98449.77;1753036;82;21053;-68
2022/01/01 01:19:51;;;;;;;3.77;2.87;;;;;;;4.02;100.00;98451.94;1725025;82;21508;-68
2022/01/01 01:22:17;;;;;;;4.05;2.83;;;;;;;4.05;100.00;98450.06;1723668;82;21046;-68
2022/01/01 01:24:43;;;;;;;3.60;2.58;;;;;;;4.08;100.00;98448.20;1745312;82;21521;-68
2022/01/01 01:27:10;;;;;;;5.12;2.80;;;;;;;4.13;100.00;98441.50;1740282;82;21026;-68
2022/01/01 01:29:41;;;;;;;4.97;2.90;;;;;;;4.16;100.00;98438.28;1750820;82;21010;-68
2022/01/01 01:32:05;;;;;;;4.17;2.92;;;;;;;4.18;100.00;98440.16;1746249;82;21051;-68
2022/01/01 01:34:32;;;;;;;3.98;2.60;;;;;;;4.21;100.00;98433.47;1732053;82;21023;-66
2022/01/01 01:36:59;;;;;;;3.80;2.77;;;;;;;4.22;100.00;98445.31;1751484;82;21031;-66
2022/01/01 01:39:26;;;;;;;4.87;3.67;;;;;;;4.23;100.00;98436.70;1753391;82;21014;-66
2022/01/01 01:41:53;;;;;;;3.25;2.42;;;;;;;4.25;100.00;98431.31;1753049;82;21482;-66
2022/01/01 01:44:30;;;;;;;4.05;2.87;;;;;;;4.29;100.00;98433.76;1750231;82;21002;-66
2022/01/01 01:46:59;;;;;;;4.10;2.83;;;;;;;4.32;100.00;98427.06;1725002;82;21035;-66
2022/01/01 01:49:25;;;;;;;4.83;3.02;;;;;;;4.38;100.00;98423.30;1725385;82;21544;-66
2022/01/01 01:51:52;;;;;;;5.10;3.70;;;;;;;4.40;100.00;98427.34;1723236;83;21063;-66
2022/01/01 01:54:19;;;;;;;4.33;3.35;;;;;;;4.44;100.00;98420.36;1742235;82;21051;-66
2022/01/01 01:56:46;;;;;;;;;;;;;;;4.46;100.00;98419.55;1754791;82;21026;-65
2022/01/01 01:59:13;;;;;;;5.62;4.08;;;;;;;4.45;100.00;98417.95;1753402;82;20102;-65
2022/01/01 02:01:40;;;;;;;5.85;3.85;;;;;;;4.44;100.00;98414.16;1752593;82;21070;-66
2022/01/01 02:04:06;;;;;;;5.47;4.35;;;;;;;4.51;100.00;98415.53;1747280;82;20971;-66
2022/01/01 02:06:33;;;;;;;6.33;4.37;;;;;;;4.57;100.00;98414.22;1730734;82;21495;-66
2022/01/01 02:08:59;;;;;;;7.65;4.40;;;;;;;4.61;100.00;98418.79;1739338;82;21012;-66
2022/01/01 02:11:27;;;;;;;6.80;5.08;;;;;;;4.67;100.00;98414.24;1738961;82;21024;-66
2022/01/01 02:18:50;;;;;;;8.15;6.05;;;;;;;4.82;100.00;98411.56;1709495;83;21473;-65
2022/01/01 02:21:17;;;;;;;9.98;7.25;;;;;;;4.89;100.00;98402.68;1709696;82;21704;-65
2022/01/01 02:23:46;;;;;;;10.08;7.87;;;;;;;5.01;100.00;98406.76;1718941;82;21435;-65
2022/01/01 02:26:15;;;;;;;11.50;7.83;;;;;;;5.13;100.00;98411.91;1736116;82;21523;-65
2022/01/01 02:28:47;;;;;;;11.63;7.75;;;;;;;5.25;100.00;98401.64;1739250;82;20937;-65
2022/01/01 02:31:16;;;;;;;11.15;7.87;;;;;;;5.42;100.00;98398.70;1737766;82;21664;-65
2022/01/01 02:33:43;;;;;;;11.38;8.45;;;;;;;5.53;100.00;98402.20;1737073;82;21261;-65
2022/01/01 02:36:10;;;;;;;11.57;8.83;;;;;;;5.65;100.00;98398.13;1737704;82;21665;-65
2022/01/01 02:38:37;;;;;;;11.83;9.65;;;;;;;5.76;100.00;98394.34;1738145;82;20968;-65
2022/01/01 02:41:03;;;;;;;12.33;9.93;;;;;;;5.83;100.00;98391.34;1738348;82;21067;-66
2022/01/01 02:43:32;;;;;;;14.00;9.75;;;;;;;5.88;100.00;98389.46;1719690;82;21534;-66
2022/01/01 02:45:58;;;;;;;12.05;8.80;;;;;;;5.98;100.00;98390.81;1709795;82;21040;-65
2022/01/01 02:48:24;;;;;;;13.35;9.28;;;;;;;6.05;100.00;98389.70;1712081;82;20967;-66
2022/01/01 02:50:51;;;;;;;12.98;10.15;;;;;;;6.09;100.00;98388.89;1717715;82;21040;-65
2022/01/01 02:53:18;;;;;;;13.90;10.48;;;;;;;6.14;100.00;98391.55;1709961;84;20952;-66
2022/01/01 02:55:44;;;;;;;14.70;10.35;;;;;;;6.18;100.00;98395.33;1710272;82;21043;-65
2022/01/01 02:58:11;;;;;;;12.35;10.00;;;;;;;6.23;100.00;98373.70;1724818;82;20983;-67
2022/01/01 03:00:39;;;;;;;12.55;10.32;;;;;;;6.28;100.00;98377.72;1711399;82;21566;-66
2022/01/01 03:03:05;;;;;;;12.33;10.18;;;;;;;6.31;100.00;98389.86;1709999;82;21428;-66
2022/01/01 03:05:31;;;;;;;13.03;9.98;;;;;;;6.33;100.00;98374.20;1709825;83;21059;-65
2022/01/01 03:07:58;;;;;;;12.70;9.53;;;;;;;6.35;100.00;98379.58;1737344;82;20996;-65
2022/01/01 03:10:24;;;;;;;12.10;9.78;;;;;;;6.41;100.00;98369.58;1728036;82;21028;-65
2022/01/01 03:12:51;;;;;;;13.78;9.85;;;;;;;6.42;100.00;98374.69;1710127;83;20984;-65
2022/01/01 03:15:18;;;;;;;13.65;9.90;;;;;;;6.47;100.00;98384.14;1709868;84;21000;-65
2022/01/01 03:17:44;;;;;;;13.83;10.08;;;;;;;6.48;100.00;98383.03;1710711;82;20996;-66
2022/01/01 03:20:11;;;;;;;13.32;10.13;;;;;;;6.44;100.00;98378.48;1736220;82;20999;-62
2022/01/01 03:22:39;;;;;;;13.00;9.33;;;;;;;6.45;100.00;98382.78;1737044;82;21570;-65
2022/01/01 03:25:06;;;;;;;13.45;9.20;;;;;;;6.47;100.00;98373.32;1739264;82;21035;-64
2022/01/01 03:27:33;;;;;;;13.18;9.88;;;;;;;6.51;100.00;98378.98;1738092;82;21039;-65
2022/01/01 03:29:59;;;;;;;;;;;;;;;6.50;100.00;98382.22;1736303;82;21405;-65
2022/01/01 03:32:26;;;;;;;13.83;10.35;;;;;;;6.48;100.00;98383.59;1739219;81;20096;-65
2022/01/01 03:34:54;;;;;;;;;;;;;;;6.48;100.00;98383.59;1741458;82;21035;-65
2022/01/01 03:37:20;;;;;;;13.00;9.93;;;;;;;6.50;100.00;98383.58;1734592;82;20397;-64
2022/01/01 03:39:48;;;;;;;12.07;9.78;;;;;;;6.50;100.00;98380.88;1715888;82;21055;-65
2022/01/01 03:42:14;;;;;;;;;;;;;;;6.48;100.00;98387.08;1712552;84;21062;-65
2022/01/01 03:44:40;;;;;;;11.80;9.13;;;;;;;6.53;100.00;98390.31;1709535;84;20435;-64
2022/01/01 03:47:10;;;;;;;12.68;9.50;;;;;;;6.52;100.00;98391.96;1710060;84;21035;-65
2022/01/01 03:49:37;;;;;;;13.03;9.85;;;;;;;6.57;100.00;98390.56;1733794;82;20936;-64
2022/01/01 03:52:03;;;;;;;12.70;9.45;;;;;;;6.56;100.00;98395.70;1709828;84;21003;-65
2022/01/01 03:54:30;;;;;;;12.88;9.90;;;;;;;6.61;100.00;98396.50;1709588;83;20961;-65
2022/01/01 03:56:57;;;;;;;12.13;9.30;;;;;;;6.65;100.00;98390.80;1710395;82;21470;-65
2022/01/01 04:00:48;;;;;;;14.53;10.58;;;;;;;6.70;100.00;98392.66;1791312;79;23274;-65
2022/01/01 04:03:17;;;;;;;12.98;10.03;;;;;;;6.59;100.00;98404.06;1760988;81;21529;-66
2022/01/01 04:05:45;;;;;;;11.83;9.48;;;;;;;6.56;100.00;98405.16;1760880;81;21472;-65
2022/01/01 04:08:13;;;;;;;11.03;9.15;;;;;;;6.59;100.00;98409.47;1774735;80;20957;-66
2022/01/01 04:10:40;;;;;;;11.10;8.63;;;;;;;6.63;100.00;98409.73;1764922;80;21046;-65
2022/01/01 04:13:08;;;;;;;11.50;8.98;;;;;;;6.64;100.00;98415.41;1792568;80;21118;-66
2022/01/01 04:15:36;;;;;;;11.80;9.18;;;;;;;6.60;100.00;98422.45;1791368;80;21018;-66
2022/01/01 04:18:08;;;;;;;11.15;9.13;;;;;;;6.59;100.00;98418.16;1791672;80;21426;-65
2022/01/01 04:20:31;;;;;;;12.63;9.65;;;;;;;6.60;100.00;98430.03;1766372;80;20982;-66
2022/01/01 04:22:58;;;;;;;10.53;8.15;;;;;;;6.64;100.00;98422.17;1762515;80;21009;-66
2022/01/01 04:25:24;;;;;;;11.22;9.25;;;;;;;6.65;100.00;98421.91;1761229;81;21591;-66
2022/01/01 04:27:53;;;;;;;10.53;8.35;;;;;;;6.63;100.00;98425.41;1768731;80;20964;-65
2022/01/01 04:30:21;;;;;;;10.25;7.30;;;;;;;6.63;100.00;98424.59;1769716;80;20986;-65
2022/01/01 04:32:48;;;;;;;9.43;7.37;;;;;;;6.65;100.00;98424.61;1761204;81;20959;-65
2022/01/01 04:35:15;;;;;;;8.85;6.85;;;;;;;6.68;100.00;98424.59;1761776;80;21018;-66
2022/01/01 04:37:42;;;;;;;9.25;6.85;;;;;;;6.71;100.00;98426.73;1765482;80;20928;-66
2022/01/01 04:40:09;;;;;;;8.15;6.80;;;;;;;6.71;100.00;98428.08;1789711;80;21002;-66
2022/01/01 04:42:36;;;;;;;8.23;6.30;;;;;;;6.72;100.00;98430.52;1731950;81;21056;-66
2022/01/01 04:45:03;;;;;;;10.35;7.08;;;;;;;6.72;100.00;98425.11;1764144;80;21022;-66
2022/01/01 04:47:30;;;;;;;8.43;6.50;;;;;;;6.70;100.00;98422.40;1764816;80;21034;-66
2022/01/01 04:49:56;;;;;;;8.73;6.70;;;;;;;6.72;100.00;98439.98;1758510;81;20998;-66
2022/01/01 04:52:22;;;;;;;10.60;6.62;;;;;;;6.73;100.00;98432.12;1762404;80;21611;-66
2022/01/01 04:54:49;;;;;;;7.70;6.72;;;;;;;6.72;100.00;98431.06;1761971;80;21010;-66
2022/01/01 04:57:15;;;;;;;9.45;6.78;;;;;;;6.71;100.00;98439.72;1779880;80;21699;-65
2022/01/01 04:59:43;;;;;;;8.23;6.70;;;;;;;6.67;100.00;98441.35;1774055;80;21063;-66
2022/01/01 05:02:09;;;;;;;7.78;6.25;;;;;;;6.64;100.00;98442.45;1753567;81;21024;-65
2022/01/01 05:04:37;;;;;;;8.83;6.25;;;;;;;6.65;100.00;98457.59;1766467;81;21066;-66
2022/01/01 05:07:07;;;;;;;8.68;6.28;;;;;;;6.66;100.00;98447.84;1771675;81;21030;-65
2022/01/01 05:09:35;;;;;;;8.10;6.37;;;;;;;6.67;100.00;98459.47;1771675;81;21534;-65
2022/01/01 05:12:01;;;;;;;8.70;6.60;;;;;;;6.64;100.00;98463.55;1734839;81;21094;-65
2022/01/01 05:14:29;;;;;;;;;;;;;;;6.65;100.00;98468.41;1743596;81;21054;-65
2022/01/01 05:16:56;;;;;;;8.48;6.15;;;;;;;6.67;100.00;98471.64;1769753;80;20127;-65
2022/01/01 05:19:23;;;;;;;7.60;6.12;;;;;;;6.64;100.00;98470.84;1740775;82;21494;-65
2022/01/01 05:21:50;;;;;;;;;;;;;;;6.65;100.00;98477.34;1744106;81;21031;-65
2022/01/01 05:24:18;;;;;;;7.80;5.83;;;;;;;6.66;100.00;98486.27;1749068;81;20132;-64
2022/01/01 05:26:45;;;;;;;7.33;5.37;;;;;;;6.63;100.00;98493.02;1769748;81;21043;-65
2022/01/01 05:29:12;;;;;;;7.97;5.20;;;;;;;6.64;100.00;98497.34;1769513;81;21604;-65
2022/01/01 05:31:39;;;;;;;7.00;5.20;;;;;;;6.68;100.00;98501.66;1766131;81;21063;-65
2022/01/01 05:34:05;;;;;;;5.97;4.75;;;;;;;6.70;100.00;98502.99;1769383;81;21059;-65
2022/01/01 05:36:34;;;;;;;6.42;4.90;;;;;;;6.67;100.00;98495.44;1773640;81;21007;-65
2022/01/01 05:39:00;;;;;;;5.75;4.40;;;;;;;6.63;100.00;98502.48;1773325;81;20951;-65
2022/01/01 05:41:27;;;;;;;5.30;3.75;;;;;;;6.65;100.00;98500.86;1770204;80;21087;-65
2022/01/01 05:43:53;;;;;;;4.62;3.50;;;;;;;6.63;100.00;98508.42;1728814;81;20996;-65
2022/01/01 05:46:20;;;;;;;5.03;3.62;;;;;;;6.62;100.00;98514.94;1771227;81;21083;-65
2022/01/01 05:48:47;;;;;;;4.53;3.30;;;;;;;6.56;100.00;98513.31;1771697;81;20976;-65
2022/01/01 05:51:13;;;;;;;5.12;3.40;;;;;;;6.50;100.00;98512.00;1749766;81;21737;-65
2022/01/01 05:53:40;;;;;;;5.05;3.10;;;;;;;6.47;100.00;98515.79;1745719;81;20967;-65
2022/01/01 05:56:06;;;;;;;3.25;2.42;;;;;;;6.44;100.00;98529.86;1757961;81;21525;-65
2022/01/01 05:58:34;;;;;;;3.42;2.45;;;;;;;6.39;100.00;98532.02;1757721;81;21030;-65
2022/01/01 06:01:00;;;;;;;;;;;;;;;6.37;100.00;98538.26;1759597;81;21038;-64
2022/01/01 06:03:26;;;;;;;3.02;2.00;;;;;;;6.32;100.00;98543.66;1777285;81;20477;-65
2022/01/01 06:05:53;;;;;;;3.70;2.10;;;;;;;6.30;100.00;98549.08;1778131;81;21561;-65
2022/01/01 06:08:19;;;;;;;3.00;1.82;;;;;;;6.35;100.00;98559.33;1778454;81;20986;-66
2022/01/01 06:10:46;;;;;;;1.90;1.10;;;;;;;6.38;100.00;98559.31;1778136;81;21039;-65
2022/01/01 06:13:13;;;;;;;2.77;1.42;;;;;;;6.39;100.00;98566.34;1761855;81;21963;-65
2022/01/01 06:15:42;;;;;;;2.25;1.55;;;;;;;6.36;100.00;98563.66;1760595;81;21030;-65
2022/01/01 06:18:09;;;;;;;2.42;1.20;;;;;;;6.34;100.00;98571.21;1747729;82;21446;-65
2022/01/01 06:20:36;;;;;;;2.77;1.50;;;;;;;6.37;100.00;98576.09;1757799;81;21089;-65
2022/01/01 06:23:04;;;;;;;1.45;0.93;;;;;;;6.37;100.00;98588.27;1768303;81;20943;-66
2022/01/01 06:25:31;;;;;;;1.90;0.95;;;;;;;6.34;100.00;98590.70;1747431;82;20983;-65
2022/01/01 06:27:57;;;;;;;1.55;0.80;;;;;;;6.33;100.00;98596.64;1747602;82;20939;-65
2022/01/01 06:30:24;;;;;;;1.45;0.88;;;;;;;6.35;100.00;98605.28;1748015;81;20987;-65
2022/01/01 06:32:52;;;;;;;1.37;0.70;;;;;;;6.33;100.00;98598.00;1764456;81;20943;-65
2022/01/01 06:35:18;;;;;;;1.80;0.60;;;;;;;6.32;100.00;98610.41;1774820;81;21514;-65
2022/01/01 06:37:44;;;;;;;0.98;0.40;;;;;;;6.33;100.00;98603.94;1778575;81;20951;-65
2022/01/01 06:40:12;;;;;;;0.70;0.50;;;;;;;6.33;100.00;98615.56;1777001;81;21026;-65
2022/01/01 06:42:39;;;;;;;1.02;0.35;;;;;;;6.31;100.00;98627.17;1777643;81;20947;-66
2022/01/01 06:45:05;;;;;;;2.37;0.50;;;;;;;6.30;100.00;98640.44;1766446;81;20999;-65
2022/01/01 06:47:33;;;;;;;0.75;0.40;;;;;;;6.32;100.00;98646.37;1747156;82;21106;-65
2022/01/01 06:50:00;;;;;;;;;;;;;;;6.31;100.00;98643.92;1750764;81;21010;-65
2022/01/01 06:52:26;;;;;;;0.42;0.28;;;;;;;6.25;100.00;98653.94;1771449;81;20088;-65
2022/01/01 06:54:53;;;;;;;1.25;0.55;;;;;;;6.15;100.00;98653.93;1755374;81;21002;-65
2022/01/01 06:57:19;;;;;;;0.90;0.40;;;;;;;6.19;100.00;98657.72;1778303;81;21526;-65
2022/01/01 06:59:45;;;;;;;;;;;;;;;6.25;100.00;98659.87;1758026;81;21482;-65
2022/01/01 07:02:12;;;;;;;0.68;0.40;;;;;;;6.30;100.00;98664.76;1778172;81;20434;-65
2022/01/01 07:04:38;;;;;;;0.72;0.30;;;;;;;6.22;100.00;98659.87;1759053;81;21025;-65
2022/01/01 07:07:05;;;;;;;1.20;0.50;;;;;;;6.22;100.00;98672.05;1749537;81;21073;-65
2022/01/01 07:09:31;;;;;;;1.45;0.40;;;;;;;6.25;100.00;98676.09;1726499;82;21516;-65
2022/01/01 07:11:57;;;;;;;0.62;0.37;;;;;;;6.31;100.00;98681.76;1777939;81;21031;-65
2022/01/01 07:14:24;;;;;;;;;;;;;;;6.35;100.00;98683.66;1769436;81;21501;-64
2022/01/01 07:16:50;;;;;;;0.93;0.50;;;;;;;6.37;100.00;98683.41;1749164;81;20137;-65
2022/01/01 07:19:16;;;;;;;0.85;0.47;;;;;;;6.30;100.00;98689.09;1751977;81;21862;-64
2022/01/01 07:21:42;;;;;;;1.67;0.72;;;;;;;6.29;100.00;98688.80;1747584;82;21099;-65
2022/01/01 07:24:09;;;;;;;3.83;0.82;;;;;;;6.33;100.00;98684.48;1740125;81;21502;-66
2022/01/01 07:26:35;;;;;;;0.50;0.30;;;;;;;6.33;100.00;98699.35;1769980;81;21077;-66
2022/01/01 07:29:02;;;;;;;1.20;0.35;;;;;;;6.36;100.00;98710.97;1750665;81;21584;-65
2022/01/01 07:31:29;;;;;;;0.60;0.33;;;;;;;6.33;100.00;98709.34;1767141;81;21074;-65
2022/01/01 07:33:56;;;;;;;0.75;0.30;;;;;;;6.31;100.00;98704.73;1778102;81;21042;-65
2022/01/01 07:36:22;;;;;;;0.72;0.40;;;;;;;6.32;100.00;98707.19;1751662;81;21580;-65
2022/01/01 07:38:48;;;;;;;1.07;0.50;;;;;;;6.31;100.00;98708.78;1748522;81;21030;-65
2022/01/01 07:41:14;;;;;;;0.85;0.40;;;;;;;6.29;100.00;98707.72;1778214;81;21541;-65
2022/01/01 07:43:41;;;;;;;0.90;0.40;;;;;;;6.25;100.00;98709.88;1777887;81;21057;-65
2022/01/01 07:46:07;;;;;;;0.70;0.40;;;;;;;6.23;100.00;98718.80;1777771;81;21054;-65
2022/01/01 07:48:34;;;;;;;0.70;0.30;;;;;;;6.25;100.00;98712.04;1777368;81;21443;-65
2022/01/01 07:51:00;;;;;;;1.10;0.40;;;;;;;6.25;100.00;98708.52;1776317;81;21081;-65
2022/01/01 07:53:27;;;;;;;1.00;0.45;;;;;;;6.24;100.00;98713.64;1776420;81;20986;-65
2022/01/01 07:55:53;;;;;;;0.88;0.40;;;;;;;6.22;100.00;98713.11;1778218;81;21039;-65
2022/01/01 07:58:19;;;;;;;0.68;0.40;;;;;;;6.18;100.00;98722.83;1769899;81;20983;-66
2022/01/01 08:00:46;;;;;;;1.82;0.33;;;;;;;6.19;100.00;98711.77;1745768;82;21026;-65
2022/01/01 08:03:12;;;;;;;1.12;0.40;;;;;;;6.21;100.00;98715.53;1761041;81;21540;-65
2022/01/01 08:05:39;;;;;;;0.90;0.40;;;;;;;6.22;100.00;98724.73;1778227;81;21038;-65
2022/01/01 08:08:05;;;;;;;;;;;;;;;6.25;100.00;98719.33;1780101;80;20999;-65
2022/01/01 08:10:32;;;;;;;1.42;0.50;;;;;;;6.21;100.00;98725.81;1777176;81;20155;-65
2022/01/01 08:12:58;;;;;;;;;;;;;;;6.15;100.00;98729.59;1770044;81;21284;-65
2022/01/01 08:15:25;;;;;;;0.62;0.30;;;;;;;6.18;100.00;98733.11;1747585;82;20153;-65
2022/01/01 08:17:51;;;;;;;0.82;0.40;;;;;;;6.17;100.00;98733.36;1759249;81;20983;-66
2022/01/01 08:20:17;;;;;;;1.00;0.50;;;;;;;6.13;100.00;98730.38;1778140;81;21529;-66
2022/01/01 08:22:45;;;;;;;0.55;0.40;;;;;;;6.14;100.00;98738.77;1755019;81;21014;-66
2022/01/01 08:25:12;;;;;;;1.42;0.57;;;;;;;6.17;100.00;98733.36;1748219;81;21058;-66
2022/01/01 08:27:38;;;;;;;;;;;;;;;6.20;100.00;98728.80;1777686;81;21035;-65
2022/01/01 08:30:06;;;;;;;2.45;0.85;;;;;;;6.22;100.00;98737.44;1778091;81;20429;-65
2022/01/01 08:32:34;;;;;;;2.85;1.27;;;;;;;6.12;100.00;98747.70;1779255;80;21073;-66
2022/01/01 08:35:00;;;;;;;3.08;1.42;;;;;;;6.12;100.00;98744.99;1759607;81;21007;-66
2022/01/01 08:37:26;;;;;;;1.50;0.80;;;;;;;6.16;100.00;98737.16;1762556;81;21097;-65
2022/01/01 08:39:55;;;;;;;2.02;0.80;;;;;;;6.20;100.00;98740.96;1778506;81;20982;-65
2022/01/01 08:42:21;;;;;;;1.60;0.60;;;;;;;6.16;100.00;98744.73;1761802;81;21049;-66
2022/01/01 08:44:49;;;;;;;1.02;0.40;;;;;;;6.17;100.00;98740.93;1754552;81;20991;-66
2022/01/01 08:47:15;;;;;;;0.80;0.50;;;;;;;6.23;100.00;98737.18;1748261;81;21066;-66
2022/01/01 08:49:42;;;;;;;;;;;;;;;6.23;100.00;98741.23;1750085;82;21501;-66
2022/01/01 08:52:12;;;;;;;1.10;0.50;;;;;;;6.25;100.00;98749.06;1753314;81;20131;-66
2022/01/01 08:54:38;;;;;;;1.80;0.60;;;;;;;6.21;100.00;98752.02;1753223;80;20967;-66
2022/01/01 08:57:09;;;;;;;1.90;0.80;;;;;;;6.20;100.00;98747.15;1767737;81;21042;-66
2022/01/01 08:59:35;;;;;;;1.20;0.60;;;;;;;6.15;100.00;98751.74;1757170;81;20959;-66
2022/01/01 09:02:02;;;;;;;0.93;0.50;;;;;;;6.17;100.00;98754.45;1777605;80;21042;-65
2022/01/01 09:04:28;;;;;;;0.75;0.50;;;;;;;6.19;100.00;98755.55;1770949;81;20951;-66
2022/01/01 09:06:54;;;;;;;2.55;1.07;;;;;;;6.20;100.00;98763.93;1763831;81;21618;-66
2022/01/01 09:09:21;;;;;;;0.82;0.50;;;;;;;6.16;100.00;98752.84;1747694;82;21034;-66
2022/01/01 09:11:49;;;;;;;1.42;0.60;;;;;;;6.16;100.00;98762.30;1747249;81;21038;-65
2022/01/01 09:14:15;;;;;;;2.00;0.70;;;;;;;6.18;100.00;98782.28;1748854;81;20947;-65
2022/01/01 09:16:42;;;;;;;1.62;0.82;;;;;;;6.21;100.00;98773.10;1776903;81;21109;-66
2022/01/01 09:19:10;;;;;;;2.77;1.10;;;;;;;6.19;100.00;98779.33;1778293;81;20971;-66
2022/01/01 09:21:39;;;;;;;2.35;1.20;;;;;;;6.14;100.00;98778.48;1756265;81;21019;-66
2022/01/01 09:24:07;;;;;;;2.45;1.37;;;;;;;6.14;100.00;98776.59;1776737;81;21482;-66
2022/01/01 09:26:34;;;;;;;3.08;1.47;;;;;;;6.15;100.00;98767.95;1734997;82;21043;-66
2022/01/01 09:29:01;;;;;;;2.00;1.10;;;;;;;6.15;100.00;98769.31;1749034;81;20994;-66
2022/01/01 09:31:27;;;;;;;2.08;1.15;;;;;;;6.16;100.00;98768.24;1776824;81;21597;-65
2022/01/01 09:33:55;;;;;;;1.57;0.85;;;;;;;6.14;100.00;98768.49;1767459;81;20952;-66
2022/01/01 09:36:21;;;;;;;1.32;0.60;;;;;;;6.13;100.00;98764.16;1759725;81;21109;-66
2022/01/01 09:38:48;;;;;;;1.15;0.50;;;;;;;6.14;100.00;98771.73;1748279;81;21392;-66
2022/01/01 09:41:15;;;;;;;;;;;;;;;6.17;100.00;98774.71;1750126;82;21047;-66
2022/01/01 09:43:41;;;;;;;1.15;0.50;;;;;;;6.15;100.00;98782.82;1754166;80;20170;-66
2022/01/01 09:46:10;;;;;;;1.32;0.68;;;;;;;6.13;100.00;98779.02;1752821;81;21656;-65
2022/01/01 09:48:36;;;;;;;1.77;1.00;;;;;;;6.15;100.00;98798.50;1753516;81;20988;-66
2022/01/01 09:51:03;;;;;;;1.98;0.70;;;;;;;6.15;100.00;98786.88;1761677;81;21047;-65
2022/01/01 09:53:31;;;;;;;1.17;0.70;;;;;;;6.15;100.00;98785.52;1748296;81;20999;-66
2022/01/01 09:56:00;;;;;;;2.65;0.62;;;;;;;6.19;100.00;98781.22;1747914;81;21058;-66
2022/01/01 09:58:29;;;;;;;1.98;0.98;;;;;;;6.20;100.00;98776.88;1768867;81;20967;-65
2022/01/01 10:00:56;;;;;;;2.75;1.10;;;;;;;6.17;100.00;98784.17;1778515;80;21565;-65
2022/01/01 10:03:40;;;;;;;2.17;1.10;;;;;;;6.18;100.00;98780.94;1777797;81;20959;-65
2022/01/01 10:06:12;;;;;;;2.30;1.22;;;;;;;6.21;100.00;98782.56;1767346;80;21089;-65
2022/01/01 10:08:39;;;;;;;4.30;2.37;;;;;;;6.22;100.00;98772.57;1760738;81;21009;-65
2022/01/01 10:11:08;;;;;;;6.08;2.83;;;;;;;6.17;100.00;98774.71;1709746;83;21089;-64
2022/01/01 10:13:37;;;;;;;4.25;2.50;;;;;;;6.22;100.00;98777.97;1699478;84;21001;-65
2022/01/01 10:16:07;;;;;;;4.80;2.80;;;;;;;6.25;100.00;98770.14;1761557;81;21058;-65
2022/01/01 10:18:37;;;;;;;2.62;1.40;;;;;;;6.29;100.00;98769.89;1748319;82;21384;-66
2022/01/01 10:21:09;;;;;;;2.25;0.93;;;;;;;6.27;100.00;98772.59;1747922;82;21094;-65
2022/01/01 10:23:38;;;;;;;4.20;2.70;;;;;;;6.28;100.00;98776.90;1750150;81;21019;-65
2022/01/01 10:29:24;;;;;;;9.78;6.08;;;;;;;6.26;100.00;98769.08;1748058;82;21006;-66
2022/01/01 10:32:06;;;;;;;9.80;6.40;;;;;;;6.24;100.00;98776.63;1757060;81;21038;-66
2022/01/01 10:34:36;;;;;;;6.97;4.33;;;;;;;6.27;100.00;98778.78;1753988;81;20959;-66
2022/01/01 10:37:05;;;;;;;4.42;2.47;;;;;;;6.34;100.00;98771.80;1749045;81;21560;-66
2022/01/01 10:39:32;;;;;;;3.72;1.70;;;;;;;6.36;100.00;98777.20;1709967;84;21049;-66
2022/01/01 10:42:03;;;;;;;4.00;2.10;;;;;;;6.34;100.00;98777.20;1692835;83;21054;-65
2022/01/01 10:44:36;;;;;;;2.12;1.10;;;;;;;6.35;100.00;98776.10;1683863;84;21390;-66
2022/01/01 10:47:19;;;;;;;4.00;1.50;;;;;;;6.42;100.00;98778.01;1767205;81;21003;-65
2022/01/01 10:52:27;;;;;;;2.72;0.90;;;;;;;6.42;100.00;98790.17;1777521;80;21042;-65
2022/01/01 10:54:59;;;;;;;3.70;0.80;;;;;;;6.44;100.00;98790.20;1751447;81;20966;-66
2022/01/01 10:57:35;;;;;;;1.62;0.70;;;;;;;6.48;100.00;98787.20;1747717;82;21101;-66
2022/01/01 11:00:18;;;;;;;2.37;0.85;;;;;;;6.48;100.00;98785.86;1748268;82;21461;-66
2022/01/01 11:02:51;;;;;;;2.27;0.95;;;;;;;6.54;100.00;98786.69;1749313;81;21022;-65
2022/01/01 11:05:32;;;;;;;1.87;0.90;;;;;;;6.60;100.00;98772.63;1758495;81;20919;-66
2022/01/01 11:07:59;;;;;;;3.08;1.32;;;;;;;6.56;100.00;98776.41;1748773;81;20967;-65
2022/01/01 11:10:27;;;;;;;3.40;0.80;;;;;;;6.60;100.00;98798.31;1760554;81;20986;-65
2022/01/01 11:12:55;;;;;;;1.85;0.82;;;;;;;6.65;100.00;98784.81;1775154;81;20998;-65
2022/01/01 11:15:21;;;;;;;1.65;0.70;;;;;;;6.71;100.00;98783.73;1767152;80;20924;-66
2022/01/01 11:17:48;;;;;;;2.67;1.00;;;;;;;6.73;100.00;98784.28;1779588;80;21011;-66
2022/01/01 11:20:17;;;;;;;2.92;1.17;;;;;;;6.79;100.00;98783.20;1778552;80;21011;-66
2022/01/01 11:22:43;;;;;;;3.85;1.72;;;;;;;6.87;100.00;98786.16;1778078;81;21006;-66
2022/01/01 11:25:11;;;;;;;3.67;1.80;;;;;;;6.96;100.00;98781.03;1775841;81;20982;-66
2022/01/01 11:27:37;;;;;;;3.12;1.47;;;;;;;6.99;100.00;98786.71;1778635;80;21043;-65
2022/01/01 11:30:06;;;;;;;2.50;1.30;;;;;;;7.03;100.00;98779.40;1778280;81;20955;-66
2022/01/01 11:32:43;;;;;;;3.27;1.50;;;;;;;6.98;100.00;98779.67;1776112;81;21039;-65
2022/01/01 11:35:16;;;;;;;2.77;1.40;;;;;;;6.85;100.00;98780.22;1777575;80;21430;-65
2022/01/01 11:37:57;;;;;;;2.22;1.12;;;;;;;6.82;100.00;98782.66;1778556;81;21057;-65
2022/01/01 11:40:25;;;;;;;2.58;1.10;;;;;;;6.81;100.00;98780.48;1761019;81;20979;-66
2022/01/01 11:42:51;;;;;;;2.60;1.22;;;;;;;6.79;100.00;98784.02;1763594;80;21054;-65
2022/01/01 11:45:42;;;;;;;2.95;1.20;;;;;;;6.73;100.00;98776.95;1775598;81;21013;-65
2022/01/01 11:48:28;;;;;;;3.08;1.90;;;;;;;6.71;100.00;98774.27;1777874;81;20960;-65
2022/01/01 11:50:55;;;;;;;4.10;1.92;;;;;;;6.73;100.00;98768.06;1772479;81;21003;-65